createdAt,value
2024-04-24T00:02:21.056Z,4.93
2024-04-24T00:04:48.248Z,4.67
2024-04-24T00:07:16.409Z,6.10
2024-04-24T00:09:43.603Z,4.30
2024-04-24T00:12:10.674Z,4.20
2024-04-24T00:14:37.794Z,3.90
2024-04-24T00:17:05.334Z,4.70
2024-04-24T00:19:32.484Z,4.40
2024-04-24T00:21:59.492Z,3.80
2024-04-24T00:24:26.686Z,3.23
2024-04-24T00:26:53.778Z,4.00
2024-04-24T00:29:20.845Z,4.43
2024-04-24T00:31:48.051Z,4.30
2024-04-24T00:34:15.081Z,3.47
2024-04-24T00:36:42.187Z,4.80
2024-04-24T00:39:09.328Z,3.83
2024-04-24T00:41:36.649Z,4.00
2024-04-24T00:44:04.002Z,3.73
2024-04-24T00:46:35.126Z,3.67
2024-04-24T00:49:03.134Z,3.53
2024-04-24T00:51:31.587Z,3.60
2024-04-24T00:53:58.805Z,3.67
2024-04-24T00:56:25.994Z,4.10
2024-04-24T00:58:53.303Z,3.70
2024-04-24T01:01:21.407Z,3.63
2024-04-24T01:03:48.594Z,3.40
2024-04-24T01:06:15.757Z,3.20
2024-04-24T01:08:42.919Z,4.00
2024-04-24T01:11:10.254Z,3.50
2024-04-24T01:13:37.603Z,3.60
2024-04-24T01:16:14.101Z,3.60
2024-04-24T01:19:09.718Z,3.57
2024-04-24T01:21:48.106Z,3.70
2024-04-24T01:24:31.609Z,3.20
2024-04-24T01:26:58.939Z,4.67
2024-04-24T01:29:26.114Z,3.10
2024-04-24T01:31:53.317Z,3.00
2024-04-24T01:34:20.374Z,5.00
2024-04-24T01:36:47.492Z,3.20
2024-04-24T01:39:14.542Z,4.27
2024-04-24T01:41:41.803Z,3.30
2024-04-24T01:44:08.901Z,4.17
2024-04-24T01:46:36.034Z,3.70
2024-04-24T01:49:03.160Z,4.70
2024-04-24T01:51:30.284Z,3.23
2024-04-24T01:53:57.416Z,3.60
2024-04-24T01:56:24.664Z,3.50
2024-04-24T01:58:52.004Z,3.97
2024-04-24T02:01:19.170Z,3.83
2024-04-24T02:03:46.319Z,4.27
2024-04-24T02:06:13.421Z,4.30
2024-04-24T02:08:40.466Z,4.80
2024-04-24T02:11:07.619Z,6.27
2024-04-24T02:13:34.742Z,6.60
2024-04-24T02:16:01.835Z,5.33
2024-04-24T02:18:28.940Z,5.37
2024-04-24T02:20:55.969Z,6.63
2024-04-24T02:23:32.225Z,6.60
2024-04-24T02:25:59.260Z,6.13
2024-04-24T02:28:26.398Z,5.50
2024-04-24T02:30:53.478Z,5.13
2024-04-24T02:33:20.647Z,5.07
2024-04-24T02:35:47.723Z,5.33
2024-04-24T02:38:14.859Z,5.07
2024-04-24T02:40:42.019Z,5.13
2024-04-24T02:43:09.302Z,5.50
2024-04-24T02:45:36.528Z,5.30
2024-04-24T02:48:04.100Z,5.00
2024-04-24T02:50:31.213Z,4.60
2024-04-24T02:52:58.495Z,4.60
2024-04-24T02:55:25.625Z,5.00
2024-04-24T02:57:52.769Z,4.37
2024-04-24T03:00:19.802Z,4.40
2024-04-24T03:02:46.977Z,4.80
2024-04-24T03:05:14.298Z,3.87
2024-04-24T03:07:41.504Z,4.27
2024-04-24T03:10:08.716Z,4.80
2024-04-24T03:12:35.778Z,4.97
2024-04-24T03:15:03.075Z,4.37
2024-04-24T03:17:30.226Z,4.20
2024-04-24T03:19:57.538Z,4.20
2024-04-24T03:22:24.650Z,3.53
2024-04-24T03:24:52.375Z,3.87
2024-04-24T03:27:19.415Z,4.20
2024-04-24T03:29:46.497Z,4.27
2024-04-24T03:32:13.652Z,4.17
2024-04-24T03:34:40.732Z,3.40
2024-04-24T03:37:07.850Z,4.20
2024-04-24T03:39:38.590Z,4.03
2024-04-24T03:42:06.054Z,4.43
2024-04-24T03:44:33.290Z,3.73
2024-04-24T03:47:00.454Z,4.20
2024-04-24T03:49:27.548Z,3.70
2024-04-24T03:51:54.700Z,4.37
2024-04-24T03:54:21.839Z,3.50
2024-04-24T03:56:48.920Z,3.53
2024-04-24T03:59:16.002Z,3.30
2024-04-24T04:01:43.088Z,3.70
2024-04-24T04:04:10.158Z,3.73
2024-04-24T04:06:37.217Z,4.60
2024-04-24T04:09:04.454Z,3.90
2024-04-24T04:11:31.547Z,3.60
2024-04-24T04:13:58.633Z,3.40
2024-04-24T04:16:25.747Z,3.90
2024-04-24T04:18:52.864Z,3.90
2024-04-24T04:21:20.021Z,5.10
2024-04-24T04:23:47.102Z,3.67
2024-04-24T04:26:14.373Z,4.37
2024-04-24T04:28:41.475Z,3.93
2024-04-24T04:31:08.594Z,3.33
2024-04-24T04:33:35.858Z,3.40
2024-04-24T04:36:07.180Z,3.90
2024-04-24T04:38:34.463Z,4.33
2024-04-24T04:41:01.704Z,4.60
2024-04-24T04:43:28.837Z,4.13
2024-04-24T04:45:55.970Z,4.37
2024-04-24T04:48:24.383Z,3.90
2024-04-24T04:50:51.486Z,4.40
2024-04-24T04:53:18.523Z,3.03
2024-04-24T04:55:45.649Z,3.93
2024-04-24T04:58:12.655Z,4.10
2024-04-24T05:00:39.766Z,4.10
2024-04-24T05:03:08.404Z,4.77
2024-04-24T05:05:35.526Z,3.93
2024-04-24T05:08:02.945Z,5.27
2024-04-24T05:10:30.001Z,4.83
2024-04-24T05:12:57.093Z,5.30
2024-04-24T05:15:24.828Z,5.10
2024-04-24T05:17:51.963Z,6.33
2024-04-24T05:20:19.102Z,5.30
2024-04-24T05:22:51.351Z,5.30
2024-04-24T05:25:19.936Z,5.13
2024-04-24T05:28:25.501Z,6.00
2024-04-24T05:30:52.817Z,4.67
2024-04-24T05:33:20.066Z,6.10
2024-04-24T05:35:47.202Z,4.20
2024-04-24T05:38:14.435Z,4.77
2024-04-24T05:40:41.479Z,4.60
2024-04-24T05:43:08.608Z,4.50
2024-04-24T05:45:36.132Z,5.00
2024-04-24T05:48:03.447Z,5.07
2024-04-24T05:50:30.819Z,5.30
2024-04-24T05:52:57.938Z,5.90
2024-04-24T05:55:26.912Z,4.83
2024-04-24T05:57:54.000Z,5.10
2024-04-24T06:00:21.154Z,4.80
2024-04-24T06:02:48.211Z,4.47
2024-04-24T06:05:15.345Z,5.67
2024-04-24T06:07:42.749Z,5.23
2024-04-24T06:10:09.860Z,4.83
2024-04-24T06:12:36.927Z,5.63
2024-04-24T06:15:04.464Z,6.37
2024-04-24T06:17:31.582Z,6.57
2024-04-24T06:19:58.685Z,5.70
2024-04-24T06:22:25.794Z,7.00
2024-04-24T06:24:52.879Z,5.23
2024-04-24T06:27:20.018Z,7.03
2024-04-24T06:29:47.352Z,17.60
2024-04-24T06:32:14.716Z,7.43
2024-04-24T06:34:43.171Z,7.20
2024-04-24T06:37:10.553Z,12.70
2024-04-24T06:39:37.686Z,7.80
2024-04-24T06:42:04.841Z,5.23
2024-04-24T06:44:31.953Z,4.87
2024-04-24T06:46:59.100Z,5.03
2024-04-24T06:49:26.299Z,5.23
2024-04-24T06:51:53.483Z,4.73
2024-04-24T06:54:20.590Z,5.50
2024-04-24T06:56:47.663Z,5.20
2024-04-24T06:59:14.890Z,4.40
2024-04-24T07:01:42.173Z,4.90
2024-04-24T07:04:09.389Z,5.37
2024-04-24T07:06:36.548Z,6.30
2024-04-24T07:09:03.732Z,5.20
2024-04-24T07:11:30.881Z,4.87
2024-04-24T07:13:57.978Z,5.30
2024-04-24T07:16:25.099Z,4.73
2024-04-24T07:18:52.205Z,5.13
2024-04-24T07:21:19.376Z,5.13
2024-04-24T07:23:46.512Z,5.23
2024-04-24T07:26:13.684Z,5.57
2024-04-24T07:28:41.114Z,5.73
2024-04-24T07:31:08.128Z,6.03
2024-04-24T07:33:35.237Z,6.43
2024-04-24T07:36:05.343Z,6.77
2024-04-24T07:38:34.238Z,6.10
2024-04-24T07:41:02.886Z,6.60
2024-04-24T07:43:29.955Z,6.33
2024-04-24T07:45:57.016Z,6.90
2024-04-24T07:48:24.292Z,6.13
2024-04-24T07:50:51.685Z,5.77
2024-04-24T07:53:19.027Z,6.57
2024-04-24T07:55:46.207Z,5.50
2024-04-24T07:58:13.342Z,4.90
2024-04-24T08:00:40.735Z,5.57
2024-04-24T08:03:07.943Z,6.07
2024-04-24T08:05:36.531Z,5.83
2024-04-24T08:08:03.982Z,7.40
2024-04-24T08:10:31.109Z,7.00
2024-04-24T08:12:58.242Z,6.97
2024-04-24T08:15:25.317Z,8.10
2024-04-24T08:17:52.452Z,7.40
2024-04-24T08:20:19.802Z,7.67
2024-04-24T08:22:46.915Z,8.20
2024-04-24T08:25:14.178Z,7.70
2024-04-24T08:27:41.299Z,8.57
2024-04-24T08:30:08.958Z,7.13
2024-04-24T08:32:36.180Z,9.33
2024-04-24T08:35:03.557Z,7.80
2024-04-24T08:37:30.699Z,7.97
2024-04-24T08:39:57.806Z,7.90
2024-04-24T08:42:25.951Z,7.57
2024-04-24T08:44:56.255Z,8.40
2024-04-24T08:47:23.603Z,8.87
2024-04-24T08:49:51.097Z,7.67
2024-04-24T08:52:20.558Z,7.87
2024-04-24T08:55:01.422Z,8.40
2024-04-24T08:57:30.223Z,7.33
2024-04-24T09:00:03.182Z,7.50
2024-04-24T09:02:39.609Z,7.50
2024-04-24T09:05:08.058Z,7.70
2024-04-24T09:07:37.174Z,8.07
2024-04-24T09:10:04.670Z,8.50
2024-04-24T09:12:32.985Z,7.53
2024-04-24T09:15:00.195Z,7.30
2024-04-24T09:17:27.476Z,7.70
2024-04-24T09:19:54.704Z,7.77
2024-04-24T09:22:21.951Z,6.57
2024-04-24T09:24:56.788Z,6.80
2024-04-24T09:27:25.442Z,6.17
2024-04-24T09:29:52.469Z,5.63
2024-04-24T09:32:19.799Z,6.07
2024-04-24T09:34:48.209Z,5.13
2024-04-24T09:37:15.496Z,6.00
2024-04-24T09:39:44.746Z,6.20
2024-04-24T09:42:12.629Z,4.93
2024-04-24T09:44:47.352Z,5.63
2024-04-24T09:47:14.679Z,5.33
2024-04-24T09:49:45.541Z,5.10
2024-04-24T09:52:18.369Z,6.23
2024-04-24T09:54:46.595Z,5.23
2024-04-24T09:57:17.395Z,4.83
2024-04-24T09:59:55.671Z,4.60
2024-04-24T10:02:27.101Z,5.47
2024-04-24T10:05:04.434Z,5.10
2024-04-24T10:07:38.238Z,4.70
2024-04-24T10:10:08.191Z,5.47
2024-04-24T10:12:45.993Z,4.60
2024-04-24T10:15:25.157Z,4.20
2024-04-24T10:17:54.563Z,4.83
2024-04-24T10:20:25.841Z,5.57
2024-04-24T10:22:54.994Z,4.80
2024-04-24T10:25:23.689Z,6.57
2024-04-24T10:27:53.194Z,6.37
2024-04-24T10:30:24.041Z,6.23
2024-04-24T10:32:51.318Z,6.60
2024-04-24T10:35:20.831Z,6.67
2024-04-24T10:37:58.556Z,5.83
2024-04-24T10:40:29.334Z,6.53
2024-04-24T10:43:05.404Z,7.27
2024-04-24T10:45:42.372Z,7.60
2024-04-24T10:48:14.565Z,8.80
2024-04-24T10:50:43.249Z,10.70
2024-04-24T10:53:17.420Z,12.27
2024-04-24T10:55:56.969Z,10.70
2024-04-24T10:58:24.354Z,7.80
2024-04-24T11:00:51.898Z,9.43
2024-04-24T11:03:19.380Z,11.57
2024-04-24T11:05:46.773Z,8.57
2024-04-24T11:08:20.655Z,8.90
2024-04-24T11:10:54.315Z,7.93
2024-04-24T11:13:21.639Z,8.03
2024-04-24T11:15:58.173Z,8.03
2024-04-24T11:18:29.810Z,8.80
2024-04-24T11:20:57.491Z,7.70
2024-04-24T11:23:24.707Z,8.83
2024-04-24T11:25:57.950Z,7.90
2024-04-24T11:28:27.268Z,8.50
2024-04-24T11:30:54.708Z,7.90
2024-04-24T11:33:23.524Z,7.60
2024-04-24T11:35:51.779Z,8.30
2024-04-24T11:38:19.031Z,7.77
2024-04-24T11:40:46.252Z,7.77
2024-04-24T11:43:13.352Z,7.70
2024-04-24T11:45:40.794Z,7.97
2024-04-24T11:48:09.120Z,7.27
2024-04-24T11:50:36.868Z,7.13
2024-04-24T11:53:04.689Z,7.37
2024-04-24T11:55:36.499Z,7.47
2024-04-24T11:58:12.998Z,8.03
2024-04-24T12:00:41.559Z,8.63
2024-04-24T12:03:09.868Z,8.20
2024-04-24T12:05:37.360Z,9.10
2024-04-24T12:08:05.105Z,17.73
2024-04-24T12:10:32.226Z,10.40
2024-04-24T12:13:00.639Z,9.50
2024-04-24T12:15:27.802Z,10.53
2024-04-24T12:17:54.965Z,10.47
2024-04-24T12:20:22.200Z,10.27
2024-04-24T12:22:49.370Z,9.77
2024-04-24T12:25:16.472Z,9.97
2024-04-24T12:27:43.623Z,9.20
2024-04-24T12:30:11.270Z,9.87
2024-04-24T12:32:38.533Z,9.93
2024-04-24T12:35:05.946Z,9.43
2024-04-24T12:37:34.729Z,9.30
2024-04-24T12:40:03.258Z,9.53
2024-04-24T12:42:30.305Z,10.23
2024-04-24T12:44:57.340Z,9.50
2024-04-24T12:47:24.699Z,11.90
2024-04-24T12:49:52.767Z,10.13
2024-04-24T12:52:19.837Z,10.90
2024-04-24T12:54:46.918Z,12.63
2024-04-24T12:57:16.122Z,11.40
2024-04-24T12:59:43.284Z,12.40
2024-04-24T13:02:10.440Z,11.90
2024-04-24T13:04:37.621Z,10.93
2024-04-24T13:07:04.755Z,12.90
2024-04-24T13:09:32.341Z,12.00
2024-04-24T13:11:59.737Z,10.10
2024-04-24T13:14:26.798Z,9.80
2024-04-24T13:16:53.845Z,11.60
2024-04-24T13:19:21.082Z,11.20
2024-04-24T13:21:48.220Z,11.23
2024-04-24T13:24:17.488Z,11.60
2024-04-24T13:26:45.805Z,11.30
2024-04-24T13:29:12.933Z,11.93
2024-04-24T13:31:40.024Z,12.80
2024-04-24T13:34:07.064Z,12.43
2024-04-24T13:36:34.178Z,13.80
2024-04-24T13:39:01.363Z,14.40
2024-04-24T13:41:33.046Z,15.27
2024-04-24T13:44:02.181Z,16.27
2024-04-24T13:46:29.408Z,15.70
2024-04-24T13:48:56.546Z,16.07
2024-04-24T13:51:25.196Z,16.03
2024-04-24T13:53:52.304Z,15.17
2024-04-24T13:56:19.484Z,14.27
2024-04-24T13:58:46.570Z,16.17
2024-04-24T14:01:13.664Z,16.27
2024-04-24T14:03:41.582Z,16.10
2024-04-24T14:06:08.706Z,16.10
2024-04-24T14:08:35.856Z,15.90
2024-04-24T14:11:03.047Z,16.00
2024-04-24T14:13:30.099Z,17.70
2024-04-24T14:15:57.138Z,15.80
2024-04-24T14:18:24.170Z,17.13
2024-04-24T14:20:51.272Z,17.87
2024-04-24T14:23:18.314Z,17.40
2024-04-24T14:25:45.450Z,17.40
2024-04-24T14:28:12.569Z,16.43
2024-04-24T14:30:39.675Z,17.97
2024-04-24T14:33:06.937Z,16.30
2024-04-24T14:35:34.838Z,17.03
2024-04-24T14:38:02.025Z,17.93
2024-04-24T14:40:29.212Z,17.10
2024-04-24T14:42:56.333Z,16.80
2024-04-24T14:45:23.833Z,17.93
2024-04-24T14:47:51.145Z,17.30
2024-04-24T14:50:18.988Z,17.17
2024-04-24T14:52:46.413Z,16.27
2024-04-24T14:55:15.582Z,16.13
2024-04-24T14:57:42.660Z,16.40
2024-04-24T15:00:13.605Z,16.20
2024-04-24T15:02:40.742Z,18.00
2024-04-24T15:05:07.985Z,15.53
2024-04-24T15:07:36.878Z,16.53
2024-04-24T15:10:08.416Z,14.30
2024-04-24T15:12:35.696Z,14.23
2024-04-24T15:15:04.424Z,12.97
2024-04-24T15:17:31.739Z,12.27
2024-04-24T15:20:00.063Z,13.93
2024-04-24T15:22:27.294Z,14.37
2024-04-24T15:24:54.361Z,13.40
2024-04-24T15:27:21.462Z,13.33
2024-04-24T15:29:48.521Z,13.77
2024-04-24T15:32:15.644Z,13.33
2024-04-24T15:34:42.875Z,13.33
2024-04-24T15:37:10.382Z,12.50
2024-04-24T15:39:39.542Z,10.73
2024-04-24T15:42:07.934Z,11.97
2024-04-24T15:44:35.366Z,10.67
2024-04-24T15:47:02.715Z,8.93
2024-04-24T15:49:29.738Z,8.97
2024-04-24T15:51:56.790Z,10.00
2024-04-24T15:54:24.118Z,10.50
2024-04-24T15:56:51.143Z,9.20
2024-04-24T15:59:18.309Z,11.47
2024-04-24T16:01:45.466Z,12.67
2024-04-24T16:04:12.573Z,10.60
2024-04-24T16:06:39.697Z,9.97
2024-04-24T16:09:06.936Z,10.13
2024-04-24T16:11:34.150Z,9.47
2024-04-24T16:14:01.309Z,10.20
2024-04-24T16:16:28.415Z,9.40
2024-04-24T16:18:55.597Z,10.30
2024-04-24T16:21:22.754Z,10.00
2024-04-24T16:23:49.992Z,10.10
2024-04-24T16:26:17.082Z,8.43
2024-04-24T16:28:44.188Z,9.70
2024-04-24T16:31:12.296Z,7.57
2024-04-24T16:33:39.687Z,8.70
2024-04-24T16:36:11.592Z,7.87
2024-04-24T16:38:38.866Z,8.03
2024-04-24T16:41:07.792Z,9.77
2024-04-24T16:43:34.926Z,9.17
2024-04-24T16:46:02.078Z,7.80
2024-04-24T16:48:29.277Z,7.47
2024-04-24T16:50:56.439Z,6.93
2024-04-24T16:53:23.592Z,7.90
2024-04-24T16:55:52.158Z,7.57
2024-04-24T16:58:19.198Z,7.50
2024-04-24T17:00:47.197Z,7.80
2024-04-24T17:03:14.760Z,7.07
2024-04-24T17:05:43.007Z,6.80
2024-04-24T17:08:10.169Z,8.20
2024-04-24T17:10:39.217Z,5.70
2024-04-24T17:13:06.406Z,6.33
2024-04-24T17:15:33.697Z,6.00
2024-04-24T17:18:00.918Z,6.03
2024-04-24T17:20:28.222Z,6.17
2024-04-24T17:22:55.348Z,5.30
2024-04-24T17:25:22.415Z,4.80
2024-04-24T17:27:49.556Z,5.10
2024-04-24T17:30:16.660Z,6.83
2024-04-24T17:32:44.032Z,6.00
2024-04-24T17:35:11.339Z,6.50
2024-04-24T17:37:38.572Z,6.40
2024-04-24T17:40:06.353Z,6.20
2024-04-24T17:42:33.648Z,6.53
2024-04-24T17:45:01.264Z,5.80
2024-04-24T17:47:28.785Z,5.77
2024-04-24T17:49:55.934Z,4.93
2024-04-24T17:52:23.820Z,5.40
2024-04-24T17:54:50.919Z,6.30
2024-04-24T17:57:18.156Z,5.70
2024-04-24T17:59:45.192Z,5.53
2024-04-24T18:02:12.262Z,5.20
2024-04-24T18:04:39.421Z,5.47
2024-04-24T18:07:06.712Z,4.90
2024-04-24T18:09:33.819Z,4.90
2024-04-24T18:12:01.129Z,5.00
2024-04-24T18:14:28.609Z,5.70
2024-04-24T18:16:55.961Z,5.83
2024-04-24T18:19:23.128Z,6.07
2024-04-24T18:21:50.256Z,6.13
2024-04-24T18:24:17.335Z,6.50
2024-04-24T18:26:44.442Z,6.60
2024-04-24T18:29:11.574Z,6.33
2024-04-24T18:31:38.774Z,7.30
2024-04-24T18:34:05.841Z,7.20
2024-04-24T18:36:33.108Z,6.57
2024-04-24T18:39:00.309Z,6.60
2024-04-24T18:41:27.436Z,7.27
2024-04-24T18:43:55.228Z,7.40
2024-04-24T18:46:22.503Z,6.80
2024-04-24T18:48:49.798Z,8.17
2024-04-24T18:51:20.239Z,6.90
2024-04-24T18:53:47.657Z,6.80
2024-04-24T18:56:14.902Z,8.03
2024-04-24T18:58:42.092Z,8.57
2024-04-24T19:01:09.387Z,7.47
2024-04-24T19:03:36.610Z,7.50
2024-04-24T19:06:04.088Z,7.43
2024-04-24T19:08:31.166Z,7.40
2024-04-24T19:10:58.514Z,7.70
2024-04-24T19:13:25.716Z,8.80
2024-04-24T19:15:52.813Z,8.30
2024-04-24T19:18:21.686Z,7.70
2024-04-24T19:20:48.957Z,8.50
2024-04-24T19:23:16.099Z,8.40
2024-04-24T19:25:43.188Z,9.70
2024-04-24T19:28:10.414Z,8.77
2024-04-24T19:30:37.537Z,8.50
2024-04-24T19:33:04.951Z,8.10
2024-04-24T19:35:32.239Z,6.67
2024-04-24T19:37:59.611Z,6.60
2024-04-24T19:40:29.862Z,7.20
2024-04-24T19:43:01.044Z,8.00
2024-04-24T19:45:28.598Z,5.83
2024-04-24T19:47:56.789Z,6.97
2024-04-24T19:50:23.989Z,5.77
2024-04-24T19:52:51.165Z,5.40
2024-04-24T19:55:18.565Z,6.47
2024-04-24T19:57:45.836Z,5.63
2024-04-24T20:00:13.816Z,6.90
2024-04-24T20:02:41.147Z,7.20
2024-04-24T20:05:08.644Z,7.13
2024-04-24T20:07:36.766Z,8.23
2024-04-24T20:10:05.756Z,7.13
2024-04-24T20:12:33.048Z,7.87
2024-04-24T20:15:00.327Z,7.43
2024-04-24T20:17:28.190Z,6.23
2024-04-24T20:19:55.298Z,5.63
2024-04-24T20:22:22.489Z,6.60
2024-04-24T20:24:49.616Z,6.63
2024-04-24T20:27:16.762Z,4.83
2024-04-24T20:29:44.040Z,5.30
2024-04-24T20:32:11.298Z,6.07
2024-04-24T20:34:38.417Z,5.30
2024-04-24T20:37:05.830Z,5.43
2024-04-24T20:39:32.869Z,5.13
2024-04-24T20:42:00.099Z,4.50
2024-04-24T20:44:27.186Z,5.53
2024-04-24T20:46:54.305Z,5.63
2024-04-24T20:49:21.922Z,6.63
2024-04-24T20:51:49.171Z,5.27
2024-04-24T20:54:16.231Z,4.73
2024-04-24T20:56:43.639Z,4.70
2024-04-24T20:59:11.409Z,4.97
2024-04-24T21:01:40.261Z,5.63
2024-04-24T21:04:07.405Z,5.03
2024-04-24T21:06:34.497Z,6.67
2024-04-24T21:09:02.973Z,7.27
2024-04-24T21:11:30.226Z,7.87
2024-04-24T21:13:58.319Z,7.07
2024-04-24T21:16:25.818Z,5.50
2024-04-24T21:18:53.242Z,5.90
2024-04-24T21:21:21.412Z,5.80
2024-04-24T21:23:48.808Z,6.43
2024-04-24T21:26:16.949Z,5.87
2024-04-24T21:28:44.537Z,4.90
2024-04-24T21:31:11.560Z,4.40
2024-04-24T21:33:38.861Z,4.60
2024-04-24T21:36:06.490Z,4.63
2024-04-24T21:38:36.078Z,5.03
2024-04-24T21:41:06.410Z,3.97
2024-04-24T21:43:33.510Z,4.43
2024-04-24T21:46:07.576Z,3.90
2024-04-24T21:48:34.620Z,3.90
2024-04-24T21:51:01.812Z,4.47
2024-04-24T21:53:28.899Z,4.50
2024-04-24T21:55:58.703Z,4.90
2024-04-24T21:58:26.058Z,4.10
2024-04-24T22:00:53.209Z,4.80
2024-04-24T22:03:20.894Z,4.50
2024-04-24T22:05:48.095Z,4.47
2024-04-24T22:08:15.187Z,4.03
2024-04-24T22:10:42.362Z,4.40
2024-04-24T22:13:09.379Z,4.23
2024-04-24T22:15:36.940Z,3.83
2024-04-24T22:18:05.709Z,4.83
2024-04-24T22:20:32.960Z,4.30
2024-04-24T22:23:00.090Z,4.27
2024-04-24T22:25:27.055Z,4.23
2024-04-24T22:27:54.069Z,5.53
2024-04-24T22:30:21.203Z,5.70
2024-04-24T22:32:48.373Z,9.07
2024-04-24T22:35:15.660Z,4.60
2024-04-24T22:37:42.670Z,5.03
2024-04-24T22:40:10.201Z,7.47
2024-04-24T22:42:37.209Z,5.17
2024-04-24T22:45:04.890Z,4.57
2024-04-24T22:47:32.074Z,4.30
2024-04-24T22:50:00.876Z,4.87
2024-04-24T22:52:27.902Z,4.60
2024-04-24T22:54:54.944Z,4.50
2024-04-24T22:57:22.084Z,4.63
2024-04-24T22:59:49.156Z,4.63
2024-04-24T23:02:16.280Z,4.50
2024-04-24T23:04:43.349Z,4.50
2024-04-24T23:07:10.564Z,3.93
2024-04-24T23:09:37.621Z,4.77
2024-04-24T23:12:05.339Z,4.47
2024-04-24T23:14:32.590Z,5.23
2024-04-24T23:16:59.845Z,4.80
2024-04-24T23:19:27.125Z,4.93
2024-04-24T23:21:54.249Z,5.90
2024-04-24T23:24:21.389Z,4.80
2024-04-24T23:26:49.257Z,4.03
2024-04-24T23:29:16.715Z,4.53
2024-04-24T23:31:43.805Z,5.00
2024-04-24T23:34:10.913Z,5.23
2024-04-24T23:36:37.955Z,4.93
2024-04-24T23:39:05.014Z,6.07
2024-04-24T23:41:32.283Z,5.23
2024-04-24T23:43:59.312Z,4.87
2024-04-24T23:46:26.360Z,5.10
2024-04-24T23:48:53.539Z,4.77
2024-04-24T23:51:20.659Z,5.07
2024-04-24T23:53:48.914Z,5.60
2024-04-24T23:56:16.479Z,4.47
2024-04-24T23:58:43.647Z,6.30
